Bridge Lake, Canada
Current Conditions -  °F | °C
As of 1:00 PM on Monday 24 Nov 2014 (Local Time) from CYIN Reporting Station
Overcast Overcast  
Wind Chill: 20°   Ceiling: 11000
Heat Index: 30°   Visibility: 9mi
Dew Point: 27°   Wind: 13mph
Humidity: 86%   Direction: 140°SE
Pressure: 29.9"   Gusts: 20mph
Location:  51.48°N, 120.7°W
Report Text: CYIN 242100Z AUTO 14011G17KT 9SM OVC110 M01/M03 A2990 RMK SLP173
Loading
Personal Weather Stations






























Interactive Weather Map New forecast layout! Learn more

10-Day Weather Forecast

Advertisements
Track Severe Weather on mobile